sensor_id;sensor_type;location;lat;lon;timestamp;P1;durP1;ratioP1;P2;durP2;ratioP2
11490;SDS011;5802;52.832;4.758;2023-04-25T00:01:00;2.20;;;1.00;;
11490;SDS011;5802;52.832;4.758;2023-04-25T00:03:27;2.22;;;1.02;;
11490;SDS011;5802;52.832;4.758;2023-04-25T00:05:54;4.80;;;1.40;;
11490;SDS011;5802;52.832;4.758;2023-04-25T00:08:23;3.83;;;1.42;;
11490;SDS011;5802;52.832;4.758;2023-04-25T00:10:50;3.25;;;1.33;;
11490;SDS011;5802;52.832;4.758;2023-04-25T00:13:17;4.07;;;1.42;;
11490;SDS011;5802;52.832;4.758;2023-04-25T00:15:44;2.78;;;1.50;;
11490;SDS011;5802;52.832;4.758;2023-04-25T00:18:11;1.42;;;0.90;;
11490;SDS011;5802;52.832;4.758;2023-04-25T00:20:38;2.20;;;1.08;;
11490;SDS011;5802;52.832;4.758;2023-04-25T00:23:05;3.47;;;1.35;;
11490;SDS011;5802;52.832;4.758;2023-04-25T00:25:34;3.42;;;1.20;;
11490;SDS011;5802;52.832;4.758;2023-04-25T00:28:00;2.22;;;1.33;;
11490;SDS011;5802;52.832;4.758;2023-04-25T00:30:27;3.08;;;1.00;;
11490;SDS011;5802;52.832;4.758;2023-04-25T00:32:54;3.17;;;1.20;;
11490;SDS011;5802;52.832;4.758;2023-04-25T00:35:20;1.83;;;1.15;;
11490;SDS011;5802;52.832;4.758;2023-04-25T00:37:47;2.50;;;1.30;;
11490;SDS011;5802;52.832;4.758;2023-04-25T00:40:14;3.00;;;1.20;;
11490;SDS011;5802;52.832;4.758;2023-04-25T00:42:42;5.18;;;1.20;;
11490;SDS011;5802;52.832;4.758;2023-04-25T00:45:10;1.58;;;1.08;;
11490;SDS011;5802;52.832;4.758;2023-04-25T00:47:40;2.28;;;1.50;;
11490;SDS011;5802;52.832;4.758;2023-04-25T00:50:07;1.88;;;0.90;;
11490;SDS011;5802;52.832;4.758;2023-04-25T00:52:35;4.85;;;1.15;;
11490;SDS011;5802;52.832;4.758;2023-04-25T00:55:02;2.85;;;1.20;;
11490;SDS011;5802;52.832;4.758;2023-04-25T00:57:29;1.98;;;1.20;;
11490;SDS011;5802;52.832;4.758;2023-04-25T00:59:57;2.35;;;1.20;;
11490;SDS011;5802;52.832;4.758;2023-04-25T01:02:24;2.65;;;1.15;;
11490;SDS011;5802;52.832;4.758;2023-04-25T01:04:52;2.47;;;1.38;;
11490;SDS011;5802;52.832;4.758;2023-04-25T01:07:19;2.50;;;0.95;;
11490;SDS011;5802;52.832;4.758;2023-04-25T01:09:46;2.75;;;1.30;;
11490;SDS011;5802;52.832;4.758;2023-04-25T01:12:13;2.95;;;1.20;;
11490;SDS011;5802;52.832;4.758;2023-04-25T01:14:40;4.38;;;1.00;;
11490;SDS011;5802;52.832;4.758;2023-04-25T01:17:08;3.63;;;1.20;;
11490;SDS011;5802;52.832;4.758;2023-04-25T01:19:35;3.58;;;1.40;;
11490;SDS011;5802;52.832;4.758;2023-04-25T01:22:03;3.17;;;1.10;;
11490;SDS011;5802;52.832;4.758;2023-04-25T01:24:30;2.45;;;1.00;;
11490;SDS011;5802;52.832;4.758;2023-04-25T01:26:58;2.15;;;1.00;;
11490;SDS011;5802;52.832;4.758;2023-04-25T01:29:27;2.13;;;1.08;;
11490;SDS011;5802;52.832;4.758;2023-04-25T01:31:55;1.63;;;1.10;;
11490;SDS011;5802;52.832;4.758;2023-04-25T01:34:23;1.92;;;1.13;;
11490;SDS011;5802;52.832;4.758;2023-04-25T01:36:50;2.05;;;1.10;;
11490;SDS011;5802;52.832;4.758;2023-04-25T01:39:20;2.30;;;1.17;;
11490;SDS011;5802;52.832;4.758;2023-04-25T01:41:47;1.85;;;1.08;;
11490;SDS011;5802;52.832;4.758;2023-04-25T01:44:14;1.63;;;1.05;;
11490;SDS011;5802;52.832;4.758;2023-04-25T01:46:41;2.65;;;1.13;;
11490;SDS011;5802;52.832;4.758;2023-04-25T01:49:08;1.95;;;1.00;;
11490;SDS011;5802;52.832;4.758;2023-04-25T01:51:35;4.80;;;1.25;;
11490;SDS011;5802;52.832;4.758;2023-04-25T01:54:02;2.10;;;1.08;;
11490;SDS011;5802;52.832;4.758;2023-04-25T01:56:31;2.45;;;1.15;;
11490;SDS011;5802;52.832;4.758;2023-04-25T01:58:58;1.95;;;0.93;;
11490;SDS011;5802;52.832;4.758;2023-04-25T02:01:25;1.10;;;0.73;;
11490;SDS011;5802;52.832;4.758;2023-04-25T02:03:52;2.17;;;1.17;;
11490;SDS011;5802;52.832;4.758;2023-04-25T02:06:18;1.45;;;1.05;;
11490;SDS011;5802;52.832;4.758;2023-04-25T02:08:45;3.05;;;1.30;;
11490;SDS011;5802;52.832;4.758;2023-04-25T02:11:12;2.75;;;1.17;;
11490;SDS011;5802;52.832;4.758;2023-04-25T02:13:40;1.70;;;1.00;;
11490;SDS011;5802;52.832;4.758;2023-04-25T02:16:07;2.78;;;1.30;;
11490;SDS011;5802;52.832;4.758;2023-04-25T02:18:33;1.42;;;1.13;;
11490;SDS011;5802;52.832;4.758;2023-04-25T02:21:02;3.55;;;1.13;;
11490;SDS011;5802;52.832;4.758;2023-04-25T02:23:29;2.80;;;1.25;;
11490;SDS011;5802;52.832;4.758;2023-04-25T02:25:56;1.60;;;0.88;;
11490;SDS011;5802;52.832;4.758;2023-04-25T02:28:23;2.60;;;1.25;;
11490;SDS011;5802;52.832;4.758;2023-04-25T02:30:51;3.20;;;1.00;;
11490;SDS011;5802;52.832;4.758;2023-04-25T02:33:18;2.35;;;1.20;;
11490;SDS011;5802;52.832;4.758;2023-04-25T02:35:46;2.63;;;1.20;;
11490;SDS011;5802;52.832;4.758;2023-04-25T02:38:12;1.45;;;1.02;;
11490;SDS011;5802;52.832;4.758;2023-04-25T02:40:39;2.55;;;1.00;;
11490;SDS011;5802;52.832;4.758;2023-04-25T02:43:06;1.67;;;0.90;;
11490;SDS011;5802;52.832;4.758;2023-04-25T02:45:33;3.60;;;1.17;;
11490;SDS011;5802;52.832;4.758;2023-04-25T02:48:01;1.50;;;0.95;;
11490;SDS011;5802;52.832;4.758;2023-04-25T02:50:28;2.53;;;1.13;;
11490;SDS011;5802;52.832;4.758;2023-04-25T02:52:55;1.60;;;1.00;;
11490;SDS011;5802;52.832;4.758;2023-04-25T02:55:22;2.03;;;1.17;;
11490;SDS011;5802;52.832;4.758;2023-04-25T02:57:48;2.28;;;0.98;;
11490;SDS011;5802;52.832;4.758;2023-04-25T03:00:16;2.22;;;1.05;;
11490;SDS011;5802;52.832;4.758;2023-04-25T03:02:42;1.65;;;0.95;;
11490;SDS011;5802;52.832;4.758;2023-04-25T03:05:10;2.30;;;1.00;;
11490;SDS011;5802;52.832;4.758;2023-04-25T03:07:37;2.55;;;0.98;;
11490;SDS011;5802;52.832;4.758;2023-04-25T03:10:05;2.35;;;0.85;;
11490;SDS011;5802;52.832;4.758;2023-04-25T03:12:32;1.83;;;0.95;;
11490;SDS011;5802;52.832;4.758;2023-04-25T03:14:59;2.20;;;0.88;;
11490;SDS011;5802;52.832;4.758;2023-04-25T03:17:26;3.20;;;1.00;;
11490;SDS011;5802;52.832;4.758;2023-04-25T03:19:52;2.45;;;0.90;;
11490;SDS011;5802;52.832;4.758;2023-04-25T03:22:20;1.50;;;0.80;;
11490;SDS011;5802;52.832;4.758;2023-04-25T03:24:47;1.80;;;1.00;;
11490;SDS011;5802;52.832;4.758;2023-04-25T03:27:14;2.75;;;1.08;;
11490;SDS011;5802;52.832;4.758;2023-04-25T03:29:41;1.23;;;0.98;;
11490;SDS011;5802;52.832;4.758;2023-04-25T03:32:08;2.33;;;0.98;;
11490;SDS011;5802;52.832;4.758;2023-04-25T03:34:34;3.67;;;1.30;;
11490;SDS011;5802;52.832;4.758;2023-04-25T03:37:01;2.42;;;1.00;;
11490;SDS011;5802;52.832;4.758;2023-04-25T03:39:30;3.42;;;1.08;;
11490;SDS011;5802;52.832;4.758;2023-04-25T03:41:57;4.25;;;1.13;;
11490;SDS011;5802;52.832;4.758;2023-04-25T03:44:23;2.67;;;1.05;;
11490;SDS011;5802;52.832;4.758;2023-04-25T03:46:50;1.58;;;0.90;;
11490;SDS011;5802;52.832;4.758;2023-04-25T03:49:17;2.45;;;0.85;;
11490;SDS011;5802;52.832;4.758;2023-04-25T03:51:43;1.20;;;0.80;;
11490;SDS011;5802;52.832;4.758;2023-04-25T03:54:10;1.75;;;0.70;;
11490;SDS011;5802;52.832;4.758;2023-04-25T03:56:38;2.13;;;0.85;;
11490;SDS011;5802;52.832;4.758;2023-04-25T03:59:05;1.65;;;0.82;;
11490;SDS011;5802;52.832;4.758;2023-04-25T04:01:32;2.47;;;0.93;;
11490;SDS011;5802;52.832;4.758;2023-04-25T04:03:59;3.60;;;0.98;;
11490;SDS011;5802;52.832;4.758;2023-04-25T04:06:26;2.67;;;1.10;;
11490;SDS011;5802;52.832;4.758;2023-04-25T04:08:53;1.55;;;0.93;;
11490;SDS011;5802;52.832;4.758;2023-04-25T04:11:20;2.22;;;1.10;;
11490;SDS011;5802;52.832;4.758;2023-04-25T04:13:48;3.40;;;0.88;;
11490;SDS011;5802;52.832;4.758;2023-04-25T04:16:15;4.30;;;0.98;;
11490;SDS011;5802;52.832;4.758;2023-04-25T04:18:41;1.63;;;0.85;;
11490;SDS011;5802;52.832;4.758;2023-04-25T04:21:08;1.38;;;0.70;;
11490;SDS011;5802;52.832;4.758;2023-04-25T04:23:35;1.75;;;0.85;;
11490;SDS011;5802;52.832;4.758;2023-04-25T04:26:02;3.38;;;1.00;;
11490;SDS011;5802;52.832;4.758;2023-04-25T04:28:30;1.67;;;0.75;;
11490;SDS011;5802;52.832;4.758;2023-04-25T04:30:58;1.30;;;0.80;;
11490;SDS011;5802;52.832;4.758;2023-04-25T04:33:26;1.30;;;0.80;;
11490;SDS011;5802;52.832;4.758;2023-04-25T04:35:53;2.45;;;0.80;;
11490;SDS011;5802;52.832;4.758;2023-04-25T04:38:20;2.70;;;0.95;;
11490;SDS011;5802;52.832;4.758;2023-04-25T04:40:47;1.13;;;0.65;;
11490;SDS011;5802;52.832;4.758;2023-04-25T04:43:15;1.42;;;0.95;;
11490;SDS011;5802;52.832;4.758;2023-04-25T04:45:43;1.30;;;0.77;;
11490;SDS011;5802;52.832;4.758;2023-04-25T04:48:11;4.03;;;0.85;;
11490;SDS011;5802;52.832;4.758;2023-04-25T04:50:39;0.98;;;0.60;;
11490;SDS011;5802;52.832;4.758;2023-04-25T04:53:06;2.58;;;0.77;;
11490;SDS011;5802;52.832;4.758;2023-04-25T04:55:33;1.42;;;0.82;;
11490;SDS011;5802;52.832;4.758;2023-04-25T04:58:00;2.38;;;0.82;;
11490;SDS011;5802;52.832;4.758;2023-04-25T05:00:27;1.83;;;1.00;;
11490;SDS011;5802;52.832;4.758;2023-04-25T05:02:54;1.88;;;0.90;;
11490;SDS011;5802;52.832;4.758;2023-04-25T05:05:22;3.08;;;0.85;;
11490;SDS011;5802;52.832;4.758;2023-04-25T05:07:48;1.27;;;0.77;;
11490;SDS011;5802;52.832;4.758;2023-04-25T05:10:16;1.63;;;0.75;;
11490;SDS011;5802;52.832;4.758;2023-04-25T05:12:43;1.90;;;0.77;;
11490;SDS011;5802;52.832;4.758;2023-04-25T05:15:10;2.45;;;0.82;;
11490;SDS011;5802;52.832;4.758;2023-04-25T05:17:37;1.77;;;0.93;;
11490;SDS011;5802;52.832;4.758;2023-04-25T05:20:04;1.65;;;0.80;;
11490;SDS011;5802;52.832;4.758;2023-04-25T05:22:33;1.58;;;0.90;;
11490;SDS011;5802;52.832;4.758;2023-04-25T05:25:00;2.28;;;1.10;;
11490;SDS011;5802;52.832;4.758;2023-04-25T05:27:28;1.00;;;0.50;;
11490;SDS011;5802;52.832;4.758;2023-04-25T05:29:54;1.63;;;0.80;;
11490;SDS011;5802;52.832;4.758;2023-04-25T05:32:21;1.25;;;0.85;;
11490;SDS011;5802;52.832;4.758;2023-04-25T05:34:48;1.55;;;0.80;;
11490;SDS011;5802;52.832;4.758;2023-04-25T05:37:16;2.25;;;0.90;;
11490;SDS011;5802;52.832;4.758;2023-04-25T05:39:44;2.75;;;1.00;;
11490;SDS011;5802;52.832;4.758;2023-04-25T05:42:10;1.13;;;0.70;;
11490;SDS011;5802;52.832;4.758;2023-04-25T05:44:37;1.35;;;0.73;;
11490;SDS011;5802;52.832;4.758;2023-04-25T05:47:04;1.30;;;0.70;;
11490;SDS011;5802;52.832;4.758;2023-04-25T05:49:31;2.30;;;0.70;;
11490;SDS011;5802;52.832;4.758;2023-04-25T05:51:57;1.42;;;0.82;;
11490;SDS011;5802;52.832;4.758;2023-04-25T05:54:24;2.03;;;0.88;;
11490;SDS011;5802;52.832;4.758;2023-04-25T05:56:52;1.63;;;0.82;;
11490;SDS011;5802;52.832;4.758;2023-04-25T05:59:19;0.98;;;0.60;;
11490;SDS011;5802;52.832;4.758;2023-04-25T06:01:46;3.20;;;0.90;;
11490;SDS011;5802;52.832;4.758;2023-04-25T06:04:12;1.08;;;0.80;;
11490;SDS011;5802;52.832;4.758;2023-04-25T06:06:39;1.90;;;0.90;;
11490;SDS011;5802;52.832;4.758;2023-04-25T06:09:06;1.50;;;0.85;;
11490;SDS011;5802;52.832;4.758;2023-04-25T06:11:32;2.50;;;1.00;;
11490;SDS011;5802;52.832;4.758;2023-04-25T06:14:00;1.58;;;0.70;;
11490;SDS011;5802;52.832;4.758;2023-04-25T06:16:27;0.65;;;0.40;;
11490;SDS011;5802;52.832;4.758;2023-04-25T06:18:54;1.67;;;0.68;;
11490;SDS011;5802;52.832;4.758;2023-04-25T06:21:21;0.98;;;0.60;;
11490;SDS011;5802;52.832;4.758;2023-04-25T06:23:48;2.03;;;0.65;;
11490;SDS011;5802;52.832;4.758;2023-04-25T06:26:14;1.27;;;0.77;;
11490;SDS011;5802;52.832;4.758;2023-04-25T06:28:41;1.55;;;0.90;;
11490;SDS011;5802;52.832;4.758;2023-04-25T06:31:09;1.48;;;0.70;;
11490;SDS011;5802;52.832;4.758;2023-04-25T06:33:36;1.75;;;0.60;;
11490;SDS011;5802;52.832;4.758;2023-04-25T06:36:02;1.33;;;0.80;;
11490;SDS011;5802;52.832;4.758;2023-04-25T06:38:29;2.97;;;0.82;;
11490;SDS011;5802;52.832;4.758;2023-04-25T06:40:56;1.77;;;0.75;;
11490;SDS011;5802;52.832;4.758;2023-04-25T06:43:23;1.73;;;0.77;;
11490;SDS011;5802;52.832;4.758;2023-04-25T06:45:49;1.85;;;0.93;;
11490;SDS011;5802;52.832;4.758;2023-04-25T06:48:18;1.52;;;0.70;;
11490;SDS011;5802;52.832;4.758;2023-04-25T06:50:44;1.73;;;0.75;;
11490;SDS011;5802;52.832;4.758;2023-04-25T06:53:11;1.35;;;0.70;;
11490;SDS011;5802;52.832;4.758;2023-04-25T06:55:38;1.10;;;0.80;;
11490;SDS011;5802;52.832;4.758;2023-04-25T06:58:06;2.35;;;0.90;;
11490;SDS011;5802;52.832;4.758;2023-04-25T07:00:33;0.60;;;0.60;;
11490;SDS011;5802;52.832;4.758;2023-04-25T07:02:59;4.50;;;0.70;;
11490;SDS011;5802;52.832;4.758;2023-04-25T07:05:28;1.33;;;0.52;;
11490;SDS011;5802;52.832;4.758;2023-04-25T07:07:55;3.95;;;1.17;;
11490;SDS011;5802;52.832;4.758;2023-04-25T07:10:22;2.08;;;0.80;;
11490;SDS011;5802;52.832;4.758;2023-04-25T07:12:49;1.20;;;0.73;;
11490;SDS011;5802;52.832;4.758;2023-04-25T07:15:17;2.35;;;1.00;;
11490;SDS011;5802;52.832;4.758;2023-04-25T07:17:43;1.88;;;0.82;;
11490;SDS011;5802;52.832;4.758;2023-04-25T07:20:10;1.95;;;0.98;;
11490;SDS011;5802;52.832;4.758;2023-04-25T07:22:38;2.35;;;1.00;;
11490;SDS011;5802;52.832;4.758;2023-04-25T07:25:05;2.38;;;0.93;;
11490;SDS011;5802;52.832;4.758;2023-04-25T07:27:33;1.35;;;0.90;;
11490;SDS011;5802;52.832;4.758;2023-04-25T07:30:00;2.17;;;0.82;;
11490;SDS011;5802;52.832;4.758;2023-04-25T07:32:27;3.15;;;0.85;;
11490;SDS011;5802;52.832;4.758;2023-04-25T07:34:53;1.58;;;0.70;;
11490;SDS011;5802;52.832;4.758;2023-04-25T07:37:20;1.05;;;0.60;;
11490;SDS011;5802;52.832;4.758;2023-04-25T07:39:48;2.55;;;0.95;;
11490;SDS011;5802;52.832;4.758;2023-04-25T07:42:15;1.70;;;0.77;;
11490;SDS011;5802;52.832;4.758;2023-04-25T07:44:42;1.42;;;0.75;;
11490;SDS011;5802;52.832;4.758;2023-04-25T07:47:09;2.40;;;0.73;;
11490;SDS011;5802;52.832;4.758;2023-04-25T07:49:36;1.00;;;0.70;;
11490;SDS011;5802;52.832;4.758;2023-04-25T07:52:04;2.78;;;0.85;;
11490;SDS011;5802;52.832;4.758;2023-04-25T07:54:31;4.70;;;0.93;;
11490;SDS011;5802;52.832;4.758;2023-04-25T07:57:00;1.73;;;0.68;;
11490;SDS011;5802;52.832;4.758;2023-04-25T07:59:27;1.60;;;0.77;;
11490;SDS011;5802;52.832;4.758;2023-04-25T08:01:54;2.10;;;1.05;;
11490;SDS011;5802;52.832;4.758;2023-04-25T08:04:22;2.55;;;0.90;;
11490;SDS011;5802;52.832;4.758;2023-04-25T08:06:49;3.05;;;1.00;;
11490;SDS011;5802;52.832;4.758;2023-04-25T08:09:16;2.22;;;0.98;;
11490;SDS011;5802;52.832;4.758;2023-04-25T08:11:42;2.28;;;1.00;;
11490;SDS011;5802;52.832;4.758;2023-04-25T08:14:11;3.00;;;1.02;;
11490;SDS011;5802;52.832;4.758;2023-04-25T08:16:38;1.90;;;0.98;;
11490;SDS011;5802;52.832;4.758;2023-04-25T08:19:04;1.80;;;0.70;;
11490;SDS011;5802;52.832;4.758;2023-04-25T08:21:31;1.48;;;0.80;;
11490;SDS011;5802;52.832;4.758;2023-04-25T08:23:58;1.42;;;0.68;;
11490;SDS011;5802;52.832;4.758;2023-04-25T08:26:25;1.05;;;0.70;;
11490;SDS011;5802;52.832;4.758;2023-04-25T08:28:52;2.30;;;0.80;;
11490;SDS011;5802;52.832;4.758;2023-04-25T08:31:20;1.52;;;0.80;;
11490;SDS011;5802;52.832;4.758;2023-04-25T08:33:47;4.20;;;0.98;;
11490;SDS011;5802;52.832;4.758;2023-04-25T08:36:14;2.45;;;1.10;;
11490;SDS011;5802;52.832;4.758;2023-04-25T08:38:41;2.33;;;0.80;;
11490;SDS011;5802;52.832;4.758;2023-04-25T08:41:07;2.38;;;0.75;;
11490;SDS011;5802;52.832;4.758;2023-04-25T08:43:37;3.30;;;1.02;;
11490;SDS011;5802;52.832;4.758;2023-04-25T08:46:07;1.25;;;0.73;;
11490;SDS011;5802;52.832;4.758;2023-04-25T08:48:35;1.75;;;0.80;;
11490;SDS011;5802;52.832;4.758;2023-04-25T08:51:02;3.30;;;1.00;;
11490;SDS011;5802;52.832;4.758;2023-04-25T08:53:33;3.17;;;0.90;;
11490;SDS011;5802;52.832;4.758;2023-04-25T08:56:01;2.80;;;1.02;;
11490;SDS011;5802;52.832;4.758;2023-04-25T08:58:31;2.13;;;0.88;;
11490;SDS011;5802;52.832;4.758;2023-04-25T09:00:58;4.72;;;1.10;;
11490;SDS011;5802;52.832;4.758;2023-04-25T09:03:26;3.25;;;1.00;;
11490;SDS011;5802;52.832;4.758;2023-04-25T09:05:54;3.65;;;1.30;;
11490;SDS011;5802;52.832;4.758;2023-04-25T09:08:21;5.68;;;1.30;;
11490;SDS011;5802;52.832;4.758;2023-04-25T09:10:48;5.13;;;1.10;;
11490;SDS011;5802;52.832;4.758;2023-04-25T09:13:20;4.32;;;1.35;;
11490;SDS011;5802;52.832;4.758;2023-04-25T09:15:52;5.03;;;1.25;;
11490;SDS011;5802;52.832;4.758;2023-04-25T09:18:23;4.68;;;1.35;;
11490;SDS011;5802;52.832;4.758;2023-04-25T09:20:55;3.63;;;1.10;;
11490;SDS011;5802;52.832;4.758;2023-04-25T09:23:31;12.05;;;1.30;;
11490;SDS011;5802;52.832;4.758;2023-04-25T09:26:05;4.65;;;1.20;;
11490;SDS011;5802;52.832;4.758;2023-04-25T09:28:33;3.90;;;1.10;;
11490;SDS011;5802;52.832;4.758;2023-04-25T09:31:02;3.70;;;1.30;;
11490;SDS011;5802;52.832;4.758;2023-04-25T09:33:30;2.88;;;1.20;;
11490;SDS011;5802;52.832;4.758;2023-04-25T09:36:02;4.70;;;1.05;;
11490;SDS011;5802;52.832;4.758;2023-04-25T09:38:30;4.50;;;1.38;;
11490;SDS011;5802;52.832;4.758;2023-04-25T09:40:58;2.08;;;1.08;;
11490;SDS011;5802;52.832;4.758;2023-04-25T09:43:25;3.70;;;1.48;;
11490;SDS011;5802;52.832;4.758;2023-04-25T09:45:53;3.72;;;1.25;;
11490;SDS011;5802;52.832;4.758;2023-04-25T09:48:22;3.38;;;1.10;;
11490;SDS011;5802;52.832;4.758;2023-04-25T09:51:04;3.67;;;1.30;;
11490;SDS011;5802;52.832;4.758;2023-04-25T09:53:32;4.60;;;1.13;;
11490;SDS011;5802;52.832;4.758;2023-04-25T09:56:00;2.22;;;1.08;;
11490;SDS011;5802;52.832;4.758;2023-04-25T09:58:31;5.15;;;1.10;;
11490;SDS011;5802;52.832;4.758;2023-04-25T10:00:59;3.85;;;1.40;;
11490;SDS011;5802;52.832;4.758;2023-04-25T10:03:27;5.63;;;1.33;;
11490;SDS011;5802;52.832;4.758;2023-04-25T10:05:56;2.47;;;1.10;;
11490;SDS011;5802;52.832;4.758;2023-04-25T10:08:27;4.07;;;1.20;;
11490;SDS011;5802;52.832;4.758;2023-04-25T10:10:58;2.50;;;1.60;;
11490;SDS011;5802;52.832;4.758;2023-04-25T10:13:26;4.65;;;1.70;;
11490;SDS011;5802;52.832;4.758;2023-04-25T10:15:54;7.93;;;1.63;;
11490;SDS011;5802;52.832;4.758;2023-04-25T10:18:23;3.05;;;1.30;;
11490;SDS011;5802;52.832;4.758;2023-04-25T10:20:50;6.57;;;1.80;;
11490;SDS011;5802;52.832;4.758;2023-04-25T10:23:17;2.63;;;1.70;;
11490;SDS011;5802;52.832;4.758;2023-04-25T10:25:45;2.83;;;1.60;;
11490;SDS011;5802;52.832;4.758;2023-04-25T10:28:13;4.13;;;1.60;;
11490;SDS011;5802;52.832;4.758;2023-04-25T10:30:51;4.00;;;1.40;;
11490;SDS011;5802;52.832;4.758;2023-04-25T10:33:29;4.97;;;1.20;;
11490;SDS011;5802;52.832;4.758;2023-04-25T10:35:58;2.80;;;1.38;;
11490;SDS011;5802;52.832;4.758;2023-04-25T10:38:34;2.38;;;1.30;;
11490;SDS011;5802;52.832;4.758;2023-04-25T10:41:06;2.15;;;1.20;;
11490;SDS011;5802;52.832;4.758;2023-04-25T10:43:35;3.42;;;1.50;;
11490;SDS011;5802;52.832;4.758;2023-04-25T10:46:15;7.60;;;1.17;;
11490;SDS011;5802;52.832;4.758;2023-04-25T10:48:46;2.58;;;1.20;;
11490;SDS011;5802;52.832;4.758;2023-04-25T10:51:18;3.38;;;1.30;;
11490;SDS011;5802;52.832;4.758;2023-04-25T10:53:46;3.40;;;1.15;;
11490;SDS011;5802;52.832;4.758;2023-04-25T10:56:25;3.35;;;1.25;;
11490;SDS011;5802;52.832;4.758;2023-04-25T10:59:02;5.72;;;1.13;;
11490;SDS011;5802;52.832;4.758;2023-04-25T11:01:35;6.82;;;1.48;;
11490;SDS011;5802;52.832;4.758;2023-04-25T11:04:04;9.80;;;1.25;;
11490;SDS011;5802;52.832;4.758;2023-04-25T11:06:33;2.85;;;1.10;;
11490;SDS011;5802;52.832;4.758;2023-04-25T11:09:09;1.90;;;1.00;;
11490;SDS011;5802;52.832;4.758;2023-04-25T11:11:40;6.18;;;1.48;;
11490;SDS011;5802;52.832;4.758;2023-04-25T11:14:07;1.95;;;1.23;;
11490;SDS011;5802;52.832;4.758;2023-04-25T11:16:33;3.72;;;1.10;;
11490;SDS011;5802;52.832;4.758;2023-04-25T11:19:01;5.70;;;1.30;;
11490;SDS011;5802;52.832;4.758;2023-04-25T11:21:28;7.47;;;1.15;;
11490;SDS011;5802;52.832;4.758;2023-04-25T11:23:56;2.88;;;1.20;;
11490;SDS011;5802;52.832;4.758;2023-04-25T11:26:23;3.28;;;0.85;;
11490;SDS011;5802;52.832;4.758;2023-04-25T11:28:55;4.38;;;1.20;;
11490;SDS011;5802;52.832;4.758;2023-04-25T11:31:24;4.13;;;1.25;;
11490;SDS011;5802;52.832;4.758;2023-04-25T11:33:52;2.67;;;0.90;;
11490;SDS011;5802;52.832;4.758;2023-04-25T11:36:19;3.15;;;1.30;;
11490;SDS011;5802;52.832;4.758;2023-04-25T11:38:46;1.98;;;1.08;;
11490;SDS011;5802;52.832;4.758;2023-04-25T11:41:12;2.15;;;0.95;;
11490;SDS011;5802;52.832;4.758;2023-04-25T11:43:39;3.08;;;1.05;;
11490;SDS011;5802;52.832;4.758;2023-04-25T11:46:07;2.80;;;1.02;;
11490;SDS011;5802;52.832;4.758;2023-04-25T11:48:36;1.88;;;0.95;;
11490;SDS011;5802;52.832;4.758;2023-04-25T11:51:04;1.67;;;1.00;;
11490;SDS011;5802;52.832;4.758;2023-04-25T11:53:31;2.08;;;0.90;;
11490;SDS011;5802;52.832;4.758;2023-04-25T11:55:57;2.25;;;1.00;;
11490;SDS011;5802;52.832;4.758;2023-04-25T11:58:25;3.28;;;1.27;;
11490;SDS011;5802;52.832;4.758;2023-04-25T12:00:52;2.03;;;1.08;;
11490;SDS011;5802;52.832;4.758;2023-04-25T12:03:20;4.10;;;1.10;;
11490;SDS011;5802;52.832;4.758;2023-04-25T12:05:51;1.67;;;1.08;;
11490;SDS011;5802;52.832;4.758;2023-04-25T12:08:17;2.10;;;0.88;;
11490;SDS011;5802;52.832;4.758;2023-04-25T12:10:44;2.92;;;0.90;;
11490;SDS011;5802;52.832;4.758;2023-04-25T12:13:19;4.05;;;0.80;;
11490;SDS011;5802;52.832;4.758;2023-04-25T12:15:46;2.47;;;1.10;;
11490;SDS011;5802;52.832;4.758;2023-04-25T12:18:13;2.33;;;0.90;;
11490;SDS011;5802;52.832;4.758;2023-04-25T12:20:41;1.67;;;0.93;;
11490;SDS011;5802;52.832;4.758;2023-04-25T12:23:08;1.63;;;1.00;;
11490;SDS011;5802;52.832;4.758;2023-04-25T12:25:37;3.22;;;0.80;;
11490;SDS011;5802;52.832;4.758;2023-04-25T12:28:12;3.72;;;1.10;;
11490;SDS011;5802;52.832;4.758;2023-04-25T12:30:56;3.38;;;1.10;;
11490;SDS011;5802;52.832;4.758;2023-04-25T12:33:24;2.08;;;0.80;;
11490;SDS011;5802;52.832;4.758;2023-04-25T12:35:53;2.30;;;1.00;;
11490;SDS011;5802;52.832;4.758;2023-04-25T12:38:20;2.38;;;1.17;;
11490;SDS011;5802;52.832;4.758;2023-04-25T12:40:50;1.92;;;1.05;;
11490;SDS011;5802;52.832;4.758;2023-04-25T12:43:17;1.15;;;0.77;;
11490;SDS011;5802;52.832;4.758;2023-04-25T12:45:44;4.63;;;0.93;;
11490;SDS011;5802;52.832;4.758;2023-04-25T12:48:10;3.25;;;1.10;;
11490;SDS011;5802;52.832;4.758;2023-04-25T12:50:37;2.63;;;1.13;;
11490;SDS011;5802;52.832;4.758;2023-04-25T12:53:05;4.65;;;1.13;;
11490;SDS011;5802;52.832;4.758;2023-04-25T12:55:32;2.55;;;1.10;;
11490;SDS011;5802;52.832;4.758;2023-04-25T12:57:58;5.85;;;1.35;;
11490;SDS011;5802;52.832;4.758;2023-04-25T13:00:25;2.05;;;0.90;;
11490;SDS011;5802;52.832;4.758;2023-04-25T13:02:54;4.07;;;1.20;;
11490;SDS011;5802;52.832;4.758;2023-04-25T13:05:21;5.60;;;1.10;;
11490;SDS011;5802;52.832;4.758;2023-04-25T13:07:48;3.30;;;1.13;;
11490;SDS011;5802;52.832;4.758;2023-04-25T13:10:16;3.50;;;1.40;;
11490;SDS011;5802;52.832;4.758;2023-04-25T13:12:43;5.57;;;1.20;;
11490;SDS011;5802;52.832;4.758;2023-04-25T13:15:10;3.45;;;0.88;;
11490;SDS011;5802;52.832;4.758;2023-04-25T13:17:37;2.33;;;1.02;;
11490;SDS011;5802;52.832;4.758;2023-04-25T13:20:04;1.92;;;0.95;;
11490;SDS011;5802;52.832;4.758;2023-04-25T13:22:33;2.85;;;1.10;;
11490;SDS011;5802;52.832;4.758;2023-04-25T13:25:01;2.65;;;1.00;;
11490;SDS011;5802;52.832;4.758;2023-04-25T13:27:30;1.75;;;0.80;;
11490;SDS011;5802;52.832;4.758;2023-04-25T13:29:58;1.73;;;0.80;;
11490;SDS011;5802;52.832;4.758;2023-04-25T13:32:25;2.58;;;0.90;;
11490;SDS011;5802;52.832;4.758;2023-04-25T13:34:52;2.50;;;0.90;;
11490;SDS011;5802;52.832;4.758;2023-04-25T13:37:19;2.05;;;0.88;;
11490;SDS011;5802;52.832;4.758;2023-04-25T13:39:49;3.30;;;0.95;;
11490;SDS011;5802;52.832;4.758;2023-04-25T13:42:15;2.53;;;0.70;;
11490;SDS011;5802;52.832;4.758;2023-04-25T13:44:43;2.40;;;0.93;;
11490;SDS011;5802;52.832;4.758;2023-04-25T13:47:10;1.50;;;0.90;;
11490;SDS011;5802;52.832;4.758;2023-04-25T13:49:37;2.10;;;1.00;;
11490;SDS011;5802;52.832;4.758;2023-04-25T13:52:03;3.58;;;0.90;;
11490;SDS011;5802;52.832;4.758;2023-04-25T13:54:30;4.35;;;0.90;;
11490;SDS011;5802;52.832;4.758;2023-04-25T13:56:58;2.25;;;0.95;;
11490;SDS011;5802;52.832;4.758;2023-04-25T13:59:25;3.42;;;0.90;;
11490;SDS011;5802;52.832;4.758;2023-04-25T14:01:53;3.05;;;1.20;;
11490;SDS011;5802;52.832;4.758;2023-04-25T14:04:20;3.67;;;1.10;;
11490;SDS011;5802;52.832;4.758;2023-04-25T14:06:46;3.78;;;1.10;;
11490;SDS011;5802;52.832;4.758;2023-04-25T14:09:13;5.40;;;0.80;;
11490;SDS011;5802;52.832;4.758;2023-04-25T14:11:40;2.67;;;1.20;;
11490;SDS011;5802;52.832;4.758;2023-04-25T14:14:07;3.15;;;1.00;;
11490;SDS011;5802;52.832;4.758;2023-04-25T14:16:33;2.42;;;0.98;;
11490;SDS011;5802;52.832;4.758;2023-04-25T14:19:02;3.05;;;1.00;;
11490;SDS011;5802;52.832;4.758;2023-04-25T14:21:28;6.28;;;1.02;;
11490;SDS011;5802;52.832;4.758;2023-04-25T14:23:57;3.45;;;0.70;;
11490;SDS011;5802;52.832;4.758;2023-04-25T14:26:24;3.85;;;1.10;;
11490;SDS011;5802;52.832;4.758;2023-04-25T14:28:50;2.08;;;1.08;;
11490;SDS011;5802;52.832;4.758;2023-04-25T14:31:18;2.00;;;0.80;;
11490;SDS011;5802;52.832;4.758;2023-04-25T14:33:44;5.20;;;1.17;;
11490;SDS011;5802;52.832;4.758;2023-04-25T14:36:12;6.50;;;1.27;;
11490;SDS011;5802;52.832;4.758;2023-04-25T14:38:40;5.25;;;1.10;;
11490;SDS011;5802;52.832;4.758;2023-04-25T14:41:06;5.55;;;1.10;;
11490;SDS011;5802;52.832;4.758;2023-04-25T14:43:33;2.97;;;0.90;;
11490;SDS011;5802;52.832;4.758;2023-04-25T14:46:00;3.70;;;1.05;;
11490;SDS011;5802;52.832;4.758;2023-04-25T14:48:27;2.53;;;0.77;;
11490;SDS011;5802;52.832;4.758;2023-04-25T14:50:54;4.18;;;0.90;;
11490;SDS011;5802;52.832;4.758;2023-04-25T14:53:22;2.40;;;0.85;;
11490;SDS011;5802;52.832;4.758;2023-04-25T14:55:49;9.18;;;1.38;;
11490;SDS011;5802;52.832;4.758;2023-04-25T14:58:16;8.40;;;1.25;;
11490;SDS011;5802;52.832;4.758;2023-04-25T15:00:43;7.65;;;1.13;;
11490;SDS011;5802;52.832;4.758;2023-04-25T15:03:10;6.57;;;1.30;;